Terminal Aerodrome Forecast
Issued by NWS Billings, MT

Home | Current Version | Previous Version | Text Only | Print | Product List | Glossary Off
Versions: 1 2 3 4 5 6 7 8 9 10 11 12 13

000
FTUS45 KBYZ 192327
TAFMLS
TAF
KMLS 192327Z 2000/2024 VRB06KT P6SM VCSH SCT060 BKN100
     FM200400 VRB06KT P6SM SCT100
     FM201000 24009KT P6SM VCFG SCT005 SCT200 WS015/31025KT
     FM201700 25009KT P6SM VCFG SCT005 SCT200=

USA.gov is the U.S. government's official web portal to all federal, state and local government web resources and services.